sensor_id;sensor_type;location;lat;lon;timestamp;pressure;altitude;pressure_sealevel;temperature
16956;BMP180;8594;52.052;8.354;2023-08-31T00:00:09;99789.00;;;16.90
16956;BMP180;8594;52.052;8.354;2023-08-31T00:02:36;99794.00;;;16.80
16956;BMP180;8594;52.052;8.354;2023-08-31T00:05:04;99783.00;;;16.70
16956;BMP180;8594;52.052;8.354;2023-08-31T00:07:31;99788.00;;;16.90
16956;BMP180;8594;52.052;8.354;2023-08-31T00:09:58;99787.00;;;16.80
16956;BMP180;8594;52.052;8.354;2023-08-31T00:12:26;99776.00;;;16.60
16956;BMP180;8594;52.052;8.354;2023-08-31T00:14:54;99775.00;;;16.50
16956;BMP180;8594;52.052;8.354;2023-08-31T00:17:20;99786.00;;;16.60
16956;BMP180;8594;52.052;8.354;2023-08-31T00:19:48;99786.00;;;16.70
16956;BMP180;8594;52.052;8.354;2023-08-31T00:22:15;99785.00;;;16.70
16956;BMP180;8594;52.052;8.354;2023-08-31T00:24:42;99789.00;;;16.40
16956;BMP180;8594;52.052;8.354;2023-08-31T00:27:08;99787.00;;;16.60
16956;BMP180;8594;52.052;8.354;2023-08-31T00:29:41;99793.00;;;16.40
16956;BMP180;8594;52.052;8.354;2023-08-31T00:32:09;99794.00;;;16.40
16956;BMP180;8594;52.052;8.354;2023-08-31T00:34:36;99791.00;;;16.20
16956;BMP180;8594;52.052;8.354;2023-08-31T00:37:03;99798.00;;;16.50
16956;BMP180;8594;52.052;8.354;2023-08-31T00:39:31;99796.00;;;16.40
16956;BMP180;8594;52.052;8.354;2023-08-31T00:41:59;99790.00;;;16.30
16956;BMP180;8594;52.052;8.354;2023-08-31T00:44:26;99800.00;;;16.50
16956;BMP180;8594;52.052;8.354;2023-08-31T00:46:55;99792.00;;;16.30
16956;BMP180;8594;52.052;8.354;2023-08-31T00:49:22;99796.00;;;16.50
16956;BMP180;8594;52.052;8.354;2023-08-31T00:51:49;99794.00;;;16.30
16956;BMP180;8594;52.052;8.354;2023-08-31T00:54:17;99788.00;;;16.20
16956;BMP180;8594;52.052;8.354;2023-08-31T00:56:44;99802.00;;;16.50
16956;BMP180;8594;52.052;8.354;2023-08-31T00:59:11;99804.00;;;16.40
16956;BMP180;8594;52.052;8.354;2023-08-31T01:01:50;99790.00;;;16.40
16956;BMP180;8594;52.052;8.354;2023-08-31T01:04:26;99800.00;;;16.60
16956;BMP180;8594;52.052;8.354;2023-08-31T01:07:06;99798.00;;;16.60
16956;BMP180;8594;52.052;8.354;2023-08-31T01:09:40;99800.00;;;16.40
16956;BMP180;8594;52.052;8.354;2023-08-31T01:12:17;99789.00;;;16.40
16956;BMP180;8594;52.052;8.354;2023-08-31T01:14:56;99800.00;;;16.50
16956;BMP180;8594;52.052;8.354;2023-08-31T01:17:26;99801.00;;;16.40
16956;BMP180;8594;52.052;8.354;2023-08-31T01:19:58;99796.00;;;16.40
16956;BMP180;8594;52.052;8.354;2023-08-31T01:22:38;99793.00;;;16.60
16956;BMP180;8594;52.052;8.354;2023-08-31T01:25:08;99799.00;;;16.50
16956;BMP180;8594;52.052;8.354;2023-08-31T01:27:36;99801.00;;;16.50
16956;BMP180;8594;52.052;8.354;2023-08-31T01:30:05;99796.00;;;16.40
16956;BMP180;8594;52.052;8.354;2023-08-31T01:32:34;99794.00;;;16.40
16956;BMP180;8594;52.052;8.354;2023-08-31T01:35:01;99796.00;;;16.70
16956;BMP180;8594;52.052;8.354;2023-08-31T01:37:38;99798.00;;;16.40
16956;BMP180;8594;52.052;8.354;2023-08-31T01:40:15;99800.00;;;16.20
16956;BMP180;8594;52.052;8.354;2023-08-31T01:42:46;99792.00;;;16.50
16956;BMP180;8594;52.052;8.354;2023-08-31T01:45:18;99791.00;;;16.50
16956;BMP180;8594;52.052;8.354;2023-08-31T01:47:46;99781.00;;;16.90
16956;BMP180;8594;52.052;8.354;2023-08-31T01:50:13;99791.00;;;16.50
16956;BMP180;8594;52.052;8.354;2023-08-31T01:52:40;99796.00;;;16.50
16956;BMP180;8594;52.052;8.354;2023-08-31T01:55:09;99788.00;;;16.30
16956;BMP180;8594;52.052;8.354;2023-08-31T01:57:35;99794.00;;;16.40
16956;BMP180;8594;52.052;8.354;2023-08-31T02:00:03;99800.00;;;16.40
16956;BMP180;8594;52.052;8.354;2023-08-31T02:02:31;99798.00;;;16.40
16956;BMP180;8594;52.052;8.354;2023-08-31T02:04:58;99788.00;;;16.40
16956;BMP180;8594;52.052;8.354;2023-08-31T02:07:27;99786.00;;;16.30
16956;BMP180;8594;52.052;8.354;2023-08-31T02:09:54;99796.00;;;16.40
16956;BMP180;8594;52.052;8.354;2023-08-31T02:12:22;99785.00;;;16.50
16956;BMP180;8594;52.052;8.354;2023-08-31T02:14:49;99794.00;;;16.50
16956;BMP180;8594;52.052;8.354;2023-08-31T02:17:16;99788.00;;;16.40
16956;BMP180;8594;52.052;8.354;2023-08-31T02:19:43;99790.00;;;16.50
16956;BMP180;8594;52.052;8.354;2023-08-31T02:22:10;99788.00;;;16.40
16956;BMP180;8594;52.052;8.354;2023-08-31T02:24:37;99788.00;;;16.50
16956;BMP180;8594;52.052;8.354;2023-08-31T02:27:04;99780.00;;;16.40
16956;BMP180;8594;52.052;8.354;2023-08-31T02:29:32;99787.00;;;16.40
16956;BMP180;8594;52.052;8.354;2023-08-31T02:31:59;99776.00;;;16.50
16956;BMP180;8594;52.052;8.354;2023-08-31T02:34:26;99785.00;;;16.50
16956;BMP180;8594;52.052;8.354;2023-08-31T02:36:53;99785.00;;;16.40
16956;BMP180;8594;52.052;8.354;2023-08-31T02:39:20;99784.00;;;16.40
16956;BMP180;8594;52.052;8.354;2023-08-31T02:41:46;99783.00;;;16.40
16956;BMP180;8594;52.052;8.354;2023-08-31T02:44:14;99785.00;;;16.50
16956;BMP180;8594;52.052;8.354;2023-08-31T02:46:42;99790.00;;;16.50
16956;BMP180;8594;52.052;8.354;2023-08-31T02:49:09;99782.00;;;16.30
16956;BMP180;8594;52.052;8.354;2023-08-31T02:51:35;99777.00;;;16.40
16956;BMP180;8594;52.052;8.354;2023-08-31T02:54:03;99795.00;;;16.40
16956;BMP180;8594;52.052;8.354;2023-08-31T02:56:30;99785.00;;;16.40
16956;BMP180;8594;52.052;8.354;2023-08-31T02:58:57;99787.00;;;16.40
16956;BMP180;8594;52.052;8.354;2023-08-31T03:01:23;99794.00;;;16.20
16956;BMP180;8594;52.052;8.354;2023-08-31T03:03:52;99787.00;;;16.30
16956;BMP180;8594;52.052;8.354;2023-08-31T03:06:19;99789.00;;;16.30
16956;BMP180;8594;52.052;8.354;2023-08-31T03:08:45;99788.00;;;16.40
16956;BMP180;8594;52.052;8.354;2023-08-31T03:11:12;99790.00;;;16.40
16956;BMP180;8594;52.052;8.354;2023-08-31T03:13:40;99793.00;;;16.30
16956;BMP180;8594;52.052;8.354;2023-08-31T03:16:07;99792.00;;;16.10
16956;BMP180;8594;52.052;8.354;2023-08-31T03:18:34;99791.00;;;16.20
16956;BMP180;8594;52.052;8.354;2023-08-31T03:21:02;99789.00;;;16.30
16956;BMP180;8594;52.052;8.354;2023-08-31T03:23:29;99788.00;;;16.30
16956;BMP180;8594;52.052;8.354;2023-08-31T03:25:56;99798.00;;;16.30
16956;BMP180;8594;52.052;8.354;2023-08-31T03:28:23;99803.00;;;16.30
16956;BMP180;8594;52.052;8.354;2023-08-31T03:30:55;99795.00;;;16.20
16956;BMP180;8594;52.052;8.354;2023-08-31T03:33:22;99795.00;;;16.10
16956;BMP180;8594;52.052;8.354;2023-08-31T03:35:49;99801.00;;;16.20
16956;BMP180;8594;52.052;8.354;2023-08-31T03:38:17;99797.00;;;16.20
16956;BMP180;8594;52.052;8.354;2023-08-31T03:40:53;99800.00;;;16.10
16956;BMP180;8594;52.052;8.354;2023-08-31T03:43:20;99807.00;;;16.10
16956;BMP180;8594;52.052;8.354;2023-08-31T03:45:47;99807.00;;;16.00
16956;BMP180;8594;52.052;8.354;2023-08-31T03:48:14;99819.00;;;16.20
16956;BMP180;8594;52.052;8.354;2023-08-31T03:50:41;99802.00;;;16.20
16956;BMP180;8594;52.052;8.354;2023-08-31T03:53:08;99811.00;;;16.20
16956;BMP180;8594;52.052;8.354;2023-08-31T03:55:37;99822.00;;;16.50
16956;BMP180;8594;52.052;8.354;2023-08-31T03:58:04;99819.00;;;16.00
16956;BMP180;8594;52.052;8.354;2023-08-31T04:00:31;99826.00;;;16.00
16956;BMP180;8594;52.052;8.354;2023-08-31T04:02:57;99828.00;;;15.80
16956;BMP180;8594;52.052;8.354;2023-08-31T04:05:24;99830.00;;;16.00
16956;BMP180;8594;52.052;8.354;2023-08-31T04:07:51;99828.00;;;16.10
16956;BMP180;8594;52.052;8.354;2023-08-31T04:10:18;99833.00;;;16.10
16956;BMP180;8594;52.052;8.354;2023-08-31T04:12:46;99840.00;;;16.00
16956;BMP180;8594;52.052;8.354;2023-08-31T04:15:13;99847.00;;;16.00
16956;BMP180;8594;52.052;8.354;2023-08-31T04:17:40;99845.00;;;16.00
16956;BMP180;8594;52.052;8.354;2023-08-31T04:20:08;99851.00;;;16.10
16956;BMP180;8594;52.052;8.354;2023-08-31T04:22:35;99850.00;;;16.00
16956;BMP180;8594;52.052;8.354;2023-08-31T04:25:02;99848.00;;;15.80
16956;BMP180;8594;52.052;8.354;2023-08-31T04:27:29;99857.00;;;15.70
16956;BMP180;8594;52.052;8.354;2023-08-31T04:29:59;99849.00;;;15.80
16956;BMP180;8594;52.052;8.354;2023-08-31T04:32:27;99851.00;;;15.70
16956;BMP180;8594;52.052;8.354;2023-08-31T04:34:54;99848.00;;;15.60
16956;BMP180;8594;52.052;8.354;2023-08-31T04:37:21;99855.00;;;15.70
16956;BMP180;8594;52.052;8.354;2023-08-31T04:39:48;99854.00;;;15.80
16956;BMP180;8594;52.052;8.354;2023-08-31T04:42:15;99849.00;;;15.60
16956;BMP180;8594;52.052;8.354;2023-08-31T04:44:42;99856.00;;;15.60
16956;BMP180;8594;52.052;8.354;2023-08-31T04:47:11;99858.00;;;15.70
16956;BMP180;8594;52.052;8.354;2023-08-31T04:49:37;99852.00;;;15.70
16956;BMP180;8594;52.052;8.354;2023-08-31T04:52:05;99853.00;;;15.90
16956;BMP180;8594;52.052;8.354;2023-08-31T04:54:32;99847.00;;;15.70
16956;BMP180;8594;52.052;8.354;2023-08-31T04:56:59;99853.00;;;15.70
16956;BMP180;8594;52.052;8.354;2023-08-31T04:59:26;99852.00;;;15.80
16956;BMP180;8594;52.052;8.354;2023-08-31T05:01:53;99857.00;;;15.60
16956;BMP180;8594;52.052;8.354;2023-08-31T05:04:21;99858.00;;;15.60
16956;BMP180;8594;52.052;8.354;2023-08-31T05:06:49;99856.00;;;15.90
16956;BMP180;8594;52.052;8.354;2023-08-31T05:09:15;99866.00;;;15.70
16956;BMP180;8594;52.052;8.354;2023-08-31T05:11:42;99870.00;;;15.70
16956;BMP180;8594;52.052;8.354;2023-08-31T05:14:09;99868.00;;;16.00
16956;BMP180;8594;52.052;8.354;2023-08-31T05:16:36;99866.00;;;16.00
16956;BMP180;8594;52.052;8.354;2023-08-31T05:19:03;99881.00;;;16.00
16956;BMP180;8594;52.052;8.354;2023-08-31T05:21:31;99878.00;;;15.80
16956;BMP180;8594;52.052;8.354;2023-08-31T05:23:58;99878.00;;;15.90
16956;BMP180;8594;52.052;8.354;2023-08-31T05:26:24;99885.00;;;15.90
16956;BMP180;8594;52.052;8.354;2023-08-31T05:28:51;99895.00;;;15.70
16956;BMP180;8594;52.052;8.354;2023-08-31T05:31:18;99895.00;;;15.90
16956;BMP180;8594;52.052;8.354;2023-08-31T05:33:45;99894.00;;;16.00
16956;BMP180;8594;52.052;8.354;2023-08-31T05:36:12;99894.00;;;16.10
16956;BMP180;8594;52.052;8.354;2023-08-31T05:38:40;99890.00;;;16.00
16956;BMP180;8594;52.052;8.354;2023-08-31T05:41:08;99891.00;;;16.10
16956;BMP180;8594;52.052;8.354;2023-08-31T05:43:36;99891.00;;;16.20
16956;BMP180;8594;52.052;8.354;2023-08-31T05:46:06;99899.00;;;16.00
16956;BMP180;8594;52.052;8.354;2023-08-31T05:48:33;99886.00;;;15.90
16956;BMP180;8594;52.052;8.354;2023-08-31T05:51:00;99890.00;;;16.10
16956;BMP180;8594;52.052;8.354;2023-08-31T05:53:27;99881.00;;;15.90
16956;BMP180;8594;52.052;8.354;2023-08-31T05:55:56;99881.00;;;15.80
16956;BMP180;8594;52.052;8.354;2023-08-31T05:58:30;99888.00;;;15.90
16956;BMP180;8594;52.052;8.354;2023-08-31T06:00:57;99891.00;;;15.80
16956;BMP180;8594;52.052;8.354;2023-08-31T06:03:24;99894.00;;;15.70
16956;BMP180;8594;52.052;8.354;2023-08-31T06:05:51;99898.00;;;16.00
16956;BMP180;8594;52.052;8.354;2023-08-31T06:08:17;99904.00;;;16.10
16956;BMP180;8594;52.052;8.354;2023-08-31T06:10:44;99906.00;;;16.10
16956;BMP180;8594;52.052;8.354;2023-08-31T06:13:12;99912.00;;;15.80
16956;BMP180;8594;52.052;8.354;2023-08-31T06:15:39;99918.00;;;15.90
16956;BMP180;8594;52.052;8.354;2023-08-31T06:18:06;99917.00;;;15.60
16956;BMP180;8594;52.052;8.354;2023-08-31T06:20:33;99917.00;;;16.10
16956;BMP180;8594;52.052;8.354;2023-08-31T06:23:01;99911.00;;;16.20
16956;BMP180;8594;52.052;8.354;2023-08-31T06:25:28;99914.00;;;16.50
16956;BMP180;8594;52.052;8.354;2023-08-31T06:27:57;99914.00;;;16.20
16956;BMP180;8594;52.052;8.354;2023-08-31T06:30:25;99920.00;;;16.20
16956;BMP180;8594;52.052;8.354;2023-08-31T06:32:52;99921.00;;;16.00
16956;BMP180;8594;52.052;8.354;2023-08-31T06:35:19;99924.00;;;16.20
16956;BMP180;8594;52.052;8.354;2023-08-31T06:37:46;99922.00;;;16.20
16956;BMP180;8594;52.052;8.354;2023-08-31T06:40:13;99926.00;;;16.00
16956;BMP180;8594;52.052;8.354;2023-08-31T06:42:40;99927.00;;;15.90
16956;BMP180;8594;52.052;8.354;2023-08-31T06:45:09;99925.00;;;16.10
16956;BMP180;8594;52.052;8.354;2023-08-31T06:47:37;99925.00;;;16.00
16956;BMP180;8594;52.052;8.354;2023-08-31T06:50:05;99924.00;;;16.10
16956;BMP180;8594;52.052;8.354;2023-08-31T06:52:32;99916.00;;;16.30
16956;BMP180;8594;52.052;8.354;2023-08-31T06:54:59;99925.00;;;16.40
16956;BMP180;8594;52.052;8.354;2023-08-31T06:57:27;99915.00;;;16.30
16956;BMP180;8594;52.052;8.354;2023-08-31T06:59:54;99919.00;;;16.30
16956;BMP180;8594;52.052;8.354;2023-08-31T07:02:21;99933.00;;;16.20
16956;BMP180;8594;52.052;8.354;2023-08-31T07:04:51;99931.00;;;16.30
16956;BMP180;8594;52.052;8.354;2023-08-31T07:07:18;99930.00;;;16.00
16956;BMP180;8594;52.052;8.354;2023-08-31T07:09:47;99932.00;;;15.90
16956;BMP180;8594;52.052;8.354;2023-08-31T07:12:14;99921.00;;;16.30
16956;BMP180;8594;52.052;8.354;2023-08-31T07:14:41;99944.00;;;16.50
16956;BMP180;8594;52.052;8.354;2023-08-31T07:17:08;99937.00;;;16.40
16956;BMP180;8594;52.052;8.354;2023-08-31T07:19:36;99941.00;;;16.70
16956;BMP180;8594;52.052;8.354;2023-08-31T07:22:06;99944.00;;;16.70
16956;BMP180;8594;52.052;8.354;2023-08-31T07:24:32;99945.00;;;16.90
16956;BMP180;8594;52.052;8.354;2023-08-31T07:27:01;99945.00;;;16.50
16956;BMP180;8594;52.052;8.354;2023-08-31T07:29:28;99939.00;;;16.20
16956;BMP180;8594;52.052;8.354;2023-08-31T07:31:55;99948.00;;;16.50
16956;BMP180;8594;52.052;8.354;2023-08-31T07:34:23;99940.00;;;16.40
16956;BMP180;8594;52.052;8.354;2023-08-31T07:36:50;99945.00;;;16.50
16956;BMP180;8594;52.052;8.354;2023-08-31T07:39:18;99952.00;;;16.60
16956;BMP180;8594;52.052;8.354;2023-08-31T07:41:45;99950.00;;;16.40
16956;BMP180;8594;52.052;8.354;2023-08-31T07:44:12;99953.00;;;16.50
16956;BMP180;8594;52.052;8.354;2023-08-31T07:46:38;99958.00;;;16.40
16956;BMP180;8594;52.052;8.354;2023-08-31T07:49:05;99957.00;;;16.60
16956;BMP180;8594;52.052;8.354;2023-08-31T07:51:32;99949.00;;;16.80
16956;BMP180;8594;52.052;8.354;2023-08-31T07:54:00;99948.00;;;16.70
16956;BMP180;8594;52.052;8.354;2023-08-31T07:56:30;99956.00;;;16.90
16956;BMP180;8594;52.052;8.354;2023-08-31T07:58:57;99962.00;;;16.90
16956;BMP180;8594;52.052;8.354;2023-08-31T08:01:24;99976.00;;;17.00
16956;BMP180;8594;52.052;8.354;2023-08-31T08:03:50;99966.00;;;16.70
16956;BMP180;8594;52.052;8.354;2023-08-31T08:06:17;99959.00;;;16.80
16956;BMP180;8594;52.052;8.354;2023-08-31T08:08:44;99964.00;;;16.60
16956;BMP180;8594;52.052;8.354;2023-08-31T08:11:11;99973.00;;;16.60
16956;BMP180;8594;52.052;8.354;2023-08-31T08:13:39;99977.00;;;17.10
16956;BMP180;8594;52.052;8.354;2023-08-31T08:16:06;99985.00;;;17.10
16956;BMP180;8594;52.052;8.354;2023-08-31T08:18:34;99982.00;;;17.20
16956;BMP180;8594;52.052;8.354;2023-08-31T08:21:01;99982.00;;;16.90
16956;BMP180;8594;52.052;8.354;2023-08-31T08:23:29;99979.00;;;17.10
16956;BMP180;8594;52.052;8.354;2023-08-31T08:25:56;99980.00;;;17.20
16956;BMP180;8594;52.052;8.354;2023-08-31T08:28:24;99991.00;;;17.10
16956;BMP180;8594;52.052;8.354;2023-08-31T08:30:53;99981.00;;;16.80
16956;BMP180;8594;52.052;8.354;2023-08-31T08:33:20;99988.00;;;17.20
16956;BMP180;8594;52.052;8.354;2023-08-31T08:35:47;99984.00;;;17.10
16956;BMP180;8594;52.052;8.354;2023-08-31T08:38:14;99986.00;;;17.00
16956;BMP180;8594;52.052;8.354;2023-08-31T08:40:47;99985.00;;;17.20
16956;BMP180;8594;52.052;8.354;2023-08-31T08:43:24;99987.00;;;17.00
16956;BMP180;8594;52.052;8.354;2023-08-31T08:46:00;99989.00;;;17.10
16956;BMP180;8594;52.052;8.354;2023-08-31T08:48:33;99999.00;;;17.30
16956;BMP180;8594;52.052;8.354;2023-08-31T08:51:03;99988.00;;;17.40
16956;BMP180;8594;52.052;8.354;2023-08-31T08:53:35;99987.00;;;17.40
16956;BMP180;8594;52.052;8.354;2023-08-31T08:56:05;99996.00;;;17.40
16956;BMP180;8594;52.052;8.354;2023-08-31T08:58:34;99998.00;;;17.70
16956;BMP180;8594;52.052;8.354;2023-08-31T09:01:07;99995.00;;;17.80
16956;BMP180;8594;52.052;8.354;2023-08-31T09:03:36;99996.00;;;17.60
16956;BMP180;8594;52.052;8.354;2023-08-31T09:06:08;99995.00;;;17.80
16956;BMP180;8594;52.052;8.354;2023-08-31T09:08:40;99998.00;;;17.90
16956;BMP180;8594;52.052;8.354;2023-08-31T09:11:20;99996.00;;;18.00
16956;BMP180;8594;52.052;8.354;2023-08-31T09:13:51;100000.00;;;17.80
16956;BMP180;8594;52.052;8.354;2023-08-31T09:16:29;99996.00;;;17.90
16956;BMP180;8594;52.052;8.354;2023-08-31T09:18:59;99999.00;;;17.80
16956;BMP180;8594;52.052;8.354;2023-08-31T09:21:36;99994.00;;;18.00
16956;BMP180;8594;52.052;8.354;2023-08-31T09:24:06;100002.00;;;18.20
16956;BMP180;8594;52.052;8.354;2023-08-31T09:26:40;100000.00;;;18.50
16956;BMP180;8594;52.052;8.354;2023-08-31T09:29:10;99996.00;;;18.10
16956;BMP180;8594;52.052;8.354;2023-08-31T09:31:44;99998.00;;;18.50
16956;BMP180;8594;52.052;8.354;2023-08-31T09:34:16;99997.00;;;18.90
16956;BMP180;8594;52.052;8.354;2023-08-31T09:36:44;99991.00;;;19.10
16956;BMP180;8594;52.052;8.354;2023-08-31T09:39:14;99996.00;;;18.80
16956;BMP180;8594;52.052;8.354;2023-08-31T09:41:55;99996.00;;;18.90
16956;BMP180;8594;52.052;8.354;2023-08-31T09:44:22;99984.00;;;18.90
16956;BMP180;8594;52.052;8.354;2023-08-31T09:46:52;99986.00;;;19.30
16956;BMP180;8594;52.052;8.354;2023-08-31T09:49:21;99990.00;;;19.30
16956;BMP180;8594;52.052;8.354;2023-08-31T09:51:49;99989.00;;;18.90
16956;BMP180;8594;52.052;8.354;2023-08-31T09:54:19;99978.00;;;18.90
16956;BMP180;8594;52.052;8.354;2023-08-31T09:56:47;99985.00;;;18.80
16956;BMP180;8594;52.052;8.354;2023-08-31T09:59:16;99984.00;;;19.00
16956;BMP180;8594;52.052;8.354;2023-08-31T10:01:45;99985.00;;;18.90
16956;BMP180;8594;52.052;8.354;2023-08-31T10:04:15;99996.00;;;19.00
16956;BMP180;8594;52.052;8.354;2023-08-31T10:06:43;99997.00;;;19.20
16956;BMP180;8594;52.052;8.354;2023-08-31T10:09:11;99995.00;;;19.10
16956;BMP180;8594;52.052;8.354;2023-08-31T10:11:39;99996.00;;;19.30
16956;BMP180;8594;52.052;8.354;2023-08-31T10:14:10;99999.00;;;19.50
16956;BMP180;8594;52.052;8.354;2023-08-31T10:16:39;99996.00;;;19.20
16956;BMP180;8594;52.052;8.354;2023-08-31T10:19:07;100006.00;;;19.00
16956;BMP180;8594;52.052;8.354;2023-08-31T10:21:36;100011.00;;;19.40
16956;BMP180;8594;52.052;8.354;2023-08-31T10:24:04;100004.00;;;19.10
16956;BMP180;8594;52.052;8.354;2023-08-31T10:26:32;100013.00;;;18.90
16956;BMP180;8594;52.052;8.354;2023-08-31T10:29:00;100007.00;;;19.10
16956;BMP180;8594;52.052;8.354;2023-08-31T10:31:30;100005.00;;;19.60
16956;BMP180;8594;52.052;8.354;2023-08-31T10:33:59;100008.00;;;19.40
16956;BMP180;8594;52.052;8.354;2023-08-31T10:36:39;100002.00;;;19.40
16956;BMP180;8594;52.052;8.354;2023-08-31T10:39:11;100011.00;;;19.70
16956;BMP180;8594;52.052;8.354;2023-08-31T10:41:39;100007.00;;;19.50
16956;BMP180;8594;52.052;8.354;2023-08-31T10:44:20;100012.00;;;19.30
16956;BMP180;8594;52.052;8.354;2023-08-31T10:46:49;100023.00;;;19.40
16956;BMP180;8594;52.052;8.354;2023-08-31T10:49:19;100009.00;;;19.60
16956;BMP180;8594;52.052;8.354;2023-08-31T10:51:49;100014.00;;;19.80
16956;BMP180;8594;52.052;8.354;2023-08-31T10:54:21;100001.00;;;20.40
16956;BMP180;8594;52.052;8.354;2023-08-31T10:57:03;100005.00;;;20.60
16956;BMP180;8594;52.052;8.354;2023-08-31T10:59:48;99995.00;;;20.90
16956;BMP180;8594;52.052;8.354;2023-08-31T11:02:35;99999.00;;;20.90
16956;BMP180;8594;52.052;8.354;2023-08-31T11:05:07;99998.00;;;20.90
16956;BMP180;8594;52.052;8.354;2023-08-31T11:07:37;99999.00;;;21.20
16956;BMP180;8594;52.052;8.354;2023-08-31T11:10:12;100007.00;;;21.40
16956;BMP180;8594;52.052;8.354;2023-08-31T11:12:41;99997.00;;;22.00
16956;BMP180;8594;52.052;8.354;2023-08-31T11:15:12;100003.00;;;21.40
16956;BMP180;8594;52.052;8.354;2023-08-31T11:17:40;100002.00;;;21.20
16956;BMP180;8594;52.052;8.354;2023-08-31T11:20:08;99999.00;;;21.70
16956;BMP180;8594;52.052;8.354;2023-08-31T11:22:41;100010.00;;;21.60
16956;BMP180;8594;52.052;8.354;2023-08-31T11:25:11;100012.00;;;21.10
16956;BMP180;8594;52.052;8.354;2023-08-31T11:27:38;100019.00;;;21.10
16956;BMP180;8594;52.052;8.354;2023-08-31T11:30:12;100027.00;;;20.80
16956;BMP180;8594;52.052;8.354;2023-08-31T11:32:45;100043.00;;;20.40
16956;BMP180;8594;52.052;8.354;2023-08-31T11:35:14;100045.00;;;19.90
16956;BMP180;8594;52.052;8.354;2023-08-31T11:37:43;100036.00;;;19.60
16956;BMP180;8594;52.052;8.354;2023-08-31T11:40:10;100033.00;;;19.80
16956;BMP180;8594;52.052;8.354;2023-08-31T11:42:37;100032.00;;;19.30
16956;BMP180;8594;52.052;8.354;2023-08-31T11:45:06;100022.00;;;19.40
16956;BMP180;8594;52.052;8.354;2023-08-31T11:47:34;100028.00;;;19.70
16956;BMP180;8594;52.052;8.354;2023-08-31T11:50:02;100025.00;;;19.80
16956;BMP180;8594;52.052;8.354;2023-08-31T11:52:31;100031.00;;;19.90
16956;BMP180;8594;52.052;8.354;2023-08-31T11:54:59;100029.00;;;20.10
16956;BMP180;8594;52.052;8.354;2023-08-31T11:57:26;100039.00;;;20.20
16956;BMP180;8594;52.052;8.354;2023-08-31T11:59:55;100033.00;;;20.20
16956;BMP180;8594;52.052;8.354;2023-08-31T12:02:22;100041.00;;;19.80
16956;BMP180;8594;52.052;8.354;2023-08-31T12:04:49;100050.00;;;19.90
16956;BMP180;8594;52.052;8.354;2023-08-31T12:07:18;100045.00;;;19.30
16956;BMP180;8594;52.052;8.354;2023-08-31T12:09:45;100057.00;;;19.30
16956;BMP180;8594;52.052;8.354;2023-08-31T12:12:15;100045.00;;;19.10
16956;BMP180;8594;52.052;8.354;2023-08-31T12:14:43;100054.00;;;18.80
16956;BMP180;8594;52.052;8.354;2023-08-31T12:17:10;100050.00;;;19.20
16956;BMP180;8594;52.052;8.354;2023-08-31T12:19:38;100046.00;;;19.50
16956;BMP180;8594;52.052;8.354;2023-08-31T12:22:05;100047.00;;;19.50
16956;BMP180;8594;52.052;8.354;2023-08-31T12:24:38;100035.00;;;19.80
16956;BMP180;8594;52.052;8.354;2023-08-31T12:27:06;100041.00;;;19.80
16956;BMP180;8594;52.052;8.354;2023-08-31T12:29:35;100043.00;;;19.90
16956;BMP180;8594;52.052;8.354;2023-08-31T12:32:03;100041.00;;;19.70
16956;BMP180;8594;52.052;8.354;2023-08-31T12:34:30;100032.00;;;19.80
16956;BMP180;8594;52.052;8.354;2023-08-31T12:36:57;100035.00;;;19.70
16956;BMP180;8594;52.052;8.354;2023-08-31T12:39:26;100034.00;;;19.80
16956;BMP180;8594;52.052;8.354;2023-08-31T12:41:53;100036.00;;;19.70
16956;BMP180;8594;52.052;8.354;2023-08-31T12:44:19;100039.00;;;19.80
16956;BMP180;8594;52.052;8.354;2023-08-31T12:46:48;100046.00;;;20.20
16956;BMP180;8594;52.052;8.354;2023-08-31T12:49:15;100037.00;;;20.30
16956;BMP180;8594;52.052;8.354;2023-08-31T12:51:42;100032.00;;;20.80
16956;BMP180;8594;52.052;8.354;2023-08-31T12:54:09;100035.00;;;21.20
16956;BMP180;8594;52.052;8.354;2023-08-31T12:56:36;100039.00;;;21.40
16956;BMP180;8594;52.052;8.354;2023-08-31T12:59:04;100039.00;;;21.10
16956;BMP180;8594;52.052;8.354;2023-08-31T13:01:31;100037.00;;;21.30
16956;BMP180;8594;52.052;8.354;2023-08-31T13:04:00;100045.00;;;21.00
16956;BMP180;8594;52.052;8.354;2023-08-31T13:06:27;100048.00;;;21.70
16956;BMP180;8594;52.052;8.354;2023-08-31T13:08:54;100050.00;;;21.60
16956;BMP180;8594;52.052;8.354;2023-08-31T13:11:21;100050.00;;;21.50
16956;BMP180;8594;52.052;8.354;2023-08-31T13:13:50;100050.00;;;21.60
16956;BMP180;8594;52.052;8.354;2023-08-31T13:16:17;100059.00;;;20.90
16956;BMP180;8594;52.052;8.354;2023-08-31T13:18:44;100067.00;;;20.50
16956;BMP180;8594;52.052;8.354;2023-08-31T13:21:12;100061.00;;;20.90
16956;BMP180;8594;52.052;8.354;2023-08-31T13:23:39;100065.00;;;20.30
16956;BMP180;8594;52.052;8.354;2023-08-31T13:26:09;100078.00;;;20.40
16956;BMP180;8594;52.052;8.354;2023-08-31T13:28:36;100085.00;;;20.10
16956;BMP180;8594;52.052;8.354;2023-08-31T13:31:03;100081.00;;;20.00
16956;BMP180;8594;52.052;8.354;2023-08-31T13:33:30;100099.00;;;19.60
16956;BMP180;8594;52.052;8.354;2023-08-31T13:35:57;100101.00;;;19.00
16956;BMP180;8594;52.052;8.354;2023-08-31T13:38:25;100097.00;;;19.30
16956;BMP180;8594;52.052;8.354;2023-08-31T13:40:54;100099.00;;;19.30
16956;BMP180;8594;52.052;8.354;2023-08-31T13:43:22;100103.00;;;19.20
16956;BMP180;8594;52.052;8.354;2023-08-31T13:45:49;100103.00;;;19.00
16956;BMP180;8594;52.052;8.354;2023-08-31T13:48:16;100100.00;;;18.70
16956;BMP180;8594;52.052;8.354;2023-08-31T13:50:43;100105.00;;;18.90
16956;BMP180;8594;52.052;8.354;2023-08-31T13:53:10;100093.00;;;19.10
16956;BMP180;8594;52.052;8.354;2023-08-31T13:55:38;100100.00;;;19.50
16956;BMP180;8594;52.052;8.354;2023-08-31T13:58:06;100101.00;;;19.70
16956;BMP180;8594;52.052;8.354;2023-08-31T14:00:33;100100.00;;;19.60
16956;BMP180;8594;52.052;8.354;2023-08-31T14:03:00;100093.00;;;20.00
16956;BMP180;8594;52.052;8.354;2023-08-31T14:05:28;100100.00;;;20.20
16956;BMP180;8594;52.052;8.354;2023-08-31T14:07:55;100090.00;;;20.10
16956;BMP180;8594;52.052;8.354;2023-08-31T14:10:23;100095.00;;;20.50
16956;BMP180;8594;52.052;8.354;2023-08-31T14:12:51;100088.00;;;20.70
16956;BMP180;8594;52.052;8.354;2023-08-31T14:15:19;100088.00;;;20.60
16956;BMP180;8594;52.052;8.354;2023-08-31T14:17:46;100088.00;;;20.90
16956;BMP180;8594;52.052;8.354;2023-08-31T14:20:13;100078.00;;;20.40
16956;BMP180;8594;52.052;8.354;2023-08-31T14:22:39;100076.00;;;20.90
16956;BMP180;8594;52.052;8.354;2023-08-31T14:25:09;100083.00;;;20.90